sensor_id;sensor_type;location;lat;lon;timestamp;P1;durP1;ratioP1;P2;durP2;ratioP2
1837;SDS011;918;50.796;6.772;2022-12-29T00:01:15;1.53;;;0.67;;
1837;SDS011;918;50.796;6.772;2022-12-29T00:03:40;1.13;;;1.13;;
1837;SDS011;918;50.796;6.772;2022-12-29T00:06:05;0.70;;;0.70;;
1837;SDS011;918;50.796;6.772;2022-12-29T00:08:31;0.50;;;0.50;;
1837;SDS011;918;50.796;6.772;2022-12-29T00:11:06;0.60;;;0.60;;
1837;SDS011;918;50.796;6.772;2022-12-29T00:13:32;0.50;;;0.50;;
1837;SDS011;918;50.796;6.772;2022-12-29T00:16:15;0.50;;;0.50;;
1837;SDS011;918;50.796;6.772;2022-12-29T00:18:40;3.23;;;0.63;;
1837;SDS011;918;50.796;6.772;2022-12-29T00:21:07;0.30;;;0.30;;
1837;SDS011;918;50.796;6.772;2022-12-29T00:23:52;0.40;;;0.40;;
1837;SDS011;918;50.796;6.772;2022-12-29T00:26:35;0.53;;;0.53;;
1837;SDS011;918;50.796;6.772;2022-12-29T00:29:20;0.43;;;0.43;;
1837;SDS011;918;50.796;6.772;2022-12-29T00:32:04;0.60;;;0.50;;
1837;SDS011;918;50.796;6.772;2022-12-29T00:34:47;0.60;;;0.50;;
1837;SDS011;918;50.796;6.772;2022-12-29T00:37:31;0.60;;;0.57;;
1837;SDS011;918;50.796;6.772;2022-12-29T00:40:15;0.60;;;0.50;;
1837;SDS011;918;50.796;6.772;2022-12-29T00:42:59;0.40;;;0.40;;
1837;SDS011;918;50.796;6.772;2022-12-29T00:45:43;0.93;;;0.50;;
1837;SDS011;918;50.796;6.772;2022-12-29T00:48:08;0.60;;;0.50;;
1837;SDS011;918;50.796;6.772;2022-12-29T00:50:33;0.40;;;0.40;;
1837;SDS011;918;50.796;6.772;2022-12-29T00:52:59;0.50;;;0.50;;
1837;SDS011;918;50.796;6.772;2022-12-29T00:55:24;0.50;;;0.50;;
1837;SDS011;918;50.796;6.772;2022-12-29T00:57:49;0.60;;;0.60;;
1837;SDS011;918;50.796;6.772;2022-12-29T01:00:14;0.37;;;0.30;;
1837;SDS011;918;50.796;6.772;2022-12-29T01:02:40;0.50;;;0.40;;
1837;SDS011;918;50.796;6.772;2022-12-29T01:05:05;0.87;;;0.40;;
1837;SDS011;918;50.796;6.772;2022-12-29T01:07:30;0.30;;;0.30;;
1837;SDS011;918;50.796;6.772;2022-12-29T01:09:56;0.80;;;0.50;;
1837;SDS011;918;50.796;6.772;2022-12-29T01:12:36;0.40;;;0.30;;
1837;SDS011;918;50.796;6.772;2022-12-29T01:15:09;0.50;;;0.40;;
1837;SDS011;918;50.796;6.772;2022-12-29T01:17:35;0.40;;;0.40;;
1837;SDS011;918;50.796;6.772;2022-12-29T01:20:01;1.57;;;0.60;;
1837;SDS011;918;50.796;6.772;2022-12-29T01:22:27;0.43;;;0.43;;
1837;SDS011;918;50.796;6.772;2022-12-29T01:24:52;0.60;;;0.50;;
1837;SDS011;918;50.796;6.772;2022-12-29T01:27:18;0.50;;;0.50;;
1837;SDS011;918;50.796;6.772;2022-12-29T01:29:43;0.80;;;0.60;;
1837;SDS011;918;50.796;6.772;2022-12-29T01:32:08;0.60;;;0.60;;
1837;SDS011;918;50.796;6.772;2022-12-29T01:34:33;0.77;;;0.70;;
1837;SDS011;918;50.796;6.772;2022-12-29T01:36:59;0.60;;;0.50;;
1837;SDS011;918;50.796;6.772;2022-12-29T01:39:24;0.60;;;0.53;;
1837;SDS011;918;50.796;6.772;2022-12-29T01:41:49;1.67;;;0.70;;
1837;SDS011;918;50.796;6.772;2022-12-29T01:47:15;0.80;;;0.80;;
1837;SDS011;918;50.796;6.772;2022-12-29T01:49:45;1.20;;;0.70;;
1837;SDS011;918;50.796;6.772;2022-12-29T01:52:11;0.83;;;0.73;;
1837;SDS011;918;50.796;6.772;2022-12-29T01:54:38;0.83;;;0.83;;
1837;SDS011;918;50.796;6.772;2022-12-29T01:57:07;1.10;;;0.60;;
1837;SDS011;918;50.796;6.772;2022-12-29T01:59:36;0.93;;;0.80;;
1837;SDS011;918;50.796;6.772;2022-12-29T02:02:04;0.60;;;0.60;;
1837;SDS011;918;50.796;6.772;2022-12-29T02:04:30;1.13;;;0.77;;
1837;SDS011;918;50.796;6.772;2022-12-29T02:07:01;0.93;;;0.80;;
1837;SDS011;918;50.796;6.772;2022-12-29T02:09:28;1.00;;;0.80;;
1837;SDS011;918;50.796;6.772;2022-12-29T02:11:53;2.60;;;1.03;;
1837;SDS011;918;50.796;6.772;2022-12-29T02:14:18;1.50;;;0.83;;
1837;SDS011;918;50.796;6.772;2022-12-29T02:25:52;1.90;;;0.83;;
1837;SDS011;918;50.796;6.772;2022-12-29T02:36:46;0.80;;;0.80;;
1837;SDS011;918;50.796;6.772;2022-12-29T02:42:12;0.87;;;0.87;;
1837;SDS011;918;50.796;6.772;2022-12-29T02:44:55;1.70;;;1.00;;
1837;SDS011;918;50.796;6.772;2022-12-29T02:47:31;1.43;;;0.80;;
1837;SDS011;918;50.796;6.772;2022-12-29T02:50:07;0.90;;;0.90;;
1837;SDS011;918;50.796;6.772;2022-12-29T02:52:51;0.73;;;0.73;;
1837;SDS011;918;50.796;6.772;2022-12-29T02:55:20;1.00;;;0.80;;
1837;SDS011;918;50.796;6.772;2022-12-29T02:57:45;1.00;;;0.70;;
1837;SDS011;918;50.796;6.772;2022-12-29T03:00:11;2.10;;;1.80;;
1837;SDS011;918;50.796;6.772;2022-12-29T03:03:12;0.70;;;0.70;;
1837;SDS011;918;50.796;6.772;2022-12-29T03:06:37;1.63;;;0.70;;
1837;SDS011;918;50.796;6.772;2022-12-29T03:08:34;1.20;;;0.80;;
1837;SDS011;918;50.796;6.772;2022-12-29T03:11:08;1.77;;;0.60;;
1837;SDS011;918;50.796;6.772;2022-12-29T03:14:02;0.50;;;0.50;;
1837;SDS011;918;50.796;6.772;2022-12-29T03:16:53;1.73;;;0.60;;
1837;SDS011;918;50.796;6.772;2022-12-29T03:19:27;0.63;;;0.60;;
1837;SDS011;918;50.796;6.772;2022-12-29T03:21:56;1.17;;;0.80;;
1837;SDS011;918;50.796;6.772;2022-12-29T03:24:43;1.00;;;0.70;;
1837;SDS011;918;50.796;6.772;2022-12-29T03:27:13;1.80;;;0.80;;
1837;SDS011;918;50.796;6.772;2022-12-29T03:29:42;1.13;;;0.60;;
1837;SDS011;918;50.796;6.772;2022-12-29T03:32:11;0.60;;;0.60;;
1837;SDS011;918;50.796;6.772;2022-12-29T03:34:37;0.70;;;0.70;;
1837;SDS011;918;50.796;6.772;2022-12-29T03:37:08;0.93;;;0.60;;
1837;SDS011;918;50.796;6.772;2022-12-29T03:39:35;1.53;;;0.73;;
1837;SDS011;918;50.796;6.772;2022-12-29T03:42:01;0.77;;;0.73;;
1837;SDS011;918;50.796;6.772;2022-12-29T03:44:37;1.13;;;0.80;;
1837;SDS011;918;50.796;6.772;2022-12-29T03:47:04;0.97;;;0.80;;
1837;SDS011;918;50.796;6.772;2022-12-29T03:49:30;2.00;;;0.90;;
1837;SDS011;918;50.796;6.772;2022-12-29T03:51:55;0.57;;;0.57;;
1837;SDS011;918;50.796;6.772;2022-12-29T03:54:21;1.27;;;1.17;;
1837;SDS011;918;50.796;6.772;2022-12-29T03:56:46;0.80;;;0.80;;
1837;SDS011;918;50.796;6.772;2022-12-29T03:59:11;1.00;;;0.83;;
1837;SDS011;918;50.796;6.772;2022-12-29T04:01:37;0.80;;;0.70;;
1837;SDS011;918;50.796;6.772;2022-12-29T04:04:03;0.57;;;0.57;;
1837;SDS011;918;50.796;6.772;2022-12-29T04:06:28;0.70;;;0.70;;
1837;SDS011;918;50.796;6.772;2022-12-29T04:08:53;0.70;;;0.70;;
1837;SDS011;918;50.796;6.772;2022-12-29T04:11:19;0.90;;;0.80;;
1837;SDS011;918;50.796;6.772;2022-12-29T04:13:45;0.70;;;0.60;;
1837;SDS011;918;50.796;6.772;2022-12-29T04:16:19;1.03;;;0.80;;
1837;SDS011;918;50.796;6.772;2022-12-29T04:18:45;1.43;;;0.87;;
1837;SDS011;918;50.796;6.772;2022-12-29T04:21:10;0.93;;;0.60;;
1837;SDS011;918;50.796;6.772;2022-12-29T04:23:36;1.33;;;0.90;;
1837;SDS011;918;50.796;6.772;2022-12-29T04:26:02;1.10;;;0.90;;
1837;SDS011;918;50.796;6.772;2022-12-29T04:28:28;0.70;;;0.70;;
1837;SDS011;918;50.796;6.772;2022-12-29T04:30:55;1.67;;;1.00;;
1837;SDS011;918;50.796;6.772;2022-12-29T04:33:20;1.23;;;0.87;;
1837;SDS011;918;50.796;6.772;2022-12-29T04:35:46;0.70;;;0.70;;
1837;SDS011;918;50.796;6.772;2022-12-29T04:38:11;1.00;;;0.80;;
1837;SDS011;918;50.796;6.772;2022-12-29T04:40:40;1.10;;;0.70;;
1837;SDS011;918;50.796;6.772;2022-12-29T04:43:06;1.37;;;0.60;;
1837;SDS011;918;50.796;6.772;2022-12-29T04:45:32;0.80;;;0.80;;
1837;SDS011;918;50.796;6.772;2022-12-29T04:47:57;0.80;;;0.80;;
1837;SDS011;918;50.796;6.772;2022-12-29T04:50:22;0.80;;;0.80;;
1837;SDS011;918;50.796;6.772;2022-12-29T04:52:47;1.90;;;1.80;;
1837;SDS011;918;50.796;6.772;2022-12-29T04:55:13;1.93;;;0.80;;
1837;SDS011;918;50.796;6.772;2022-12-29T04:57:38;0.70;;;0.70;;
1837;SDS011;918;50.796;6.772;2022-12-29T05:00:04;1.50;;;1.10;;
1837;SDS011;918;50.796;6.772;2022-12-29T05:02:29;1.30;;;0.90;;
1837;SDS011;918;50.796;6.772;2022-12-29T05:04:55;0.67;;;0.67;;
1837;SDS011;918;50.796;6.772;2022-12-29T05:07:20;0.87;;;0.50;;
1837;SDS011;918;50.796;6.772;2022-12-29T05:09:45;0.70;;;0.70;;
1837;SDS011;918;50.796;6.772;2022-12-29T05:12:11;0.70;;;0.70;;
1837;SDS011;918;50.796;6.772;2022-12-29T05:14:36;1.00;;;0.90;;
1837;SDS011;918;50.796;6.772;2022-12-29T05:17:01;1.17;;;0.80;;
1837;SDS011;918;50.796;6.772;2022-12-29T05:19:26;0.60;;;0.60;;
1837;SDS011;918;50.796;6.772;2022-12-29T05:21:52;0.63;;;0.60;;
1837;SDS011;918;50.796;6.772;2022-12-29T05:24:17;0.57;;;0.57;;
1837;SDS011;918;50.796;6.772;2022-12-29T05:26:42;0.93;;;0.83;;
1837;SDS011;918;50.796;6.772;2022-12-29T05:29:08;0.60;;;0.53;;
1837;SDS011;918;50.796;6.772;2022-12-29T05:31:33;0.87;;;0.87;;
1837;SDS011;918;50.796;6.772;2022-12-29T05:34:00;0.70;;;0.60;;
1837;SDS011;918;50.796;6.772;2022-12-29T05:36:25;0.97;;;0.60;;
1837;SDS011;918;50.796;6.772;2022-12-29T05:38:51;1.20;;;1.10;;
1837;SDS011;918;50.796;6.772;2022-12-29T05:41:16;0.50;;;0.50;;
1837;SDS011;918;50.796;6.772;2022-12-29T05:43:41;0.97;;;0.77;;
1837;SDS011;918;50.796;6.772;2022-12-29T05:46:06;1.93;;;0.50;;
1837;SDS011;918;50.796;6.772;2022-12-29T05:48:32;0.60;;;0.60;;
1837;SDS011;918;50.796;6.772;2022-12-29T05:50:57;1.90;;;0.50;;
1837;SDS011;918;50.796;6.772;2022-12-29T05:53:22;1.17;;;0.60;;
1837;SDS011;918;50.796;6.772;2022-12-29T05:55:47;0.57;;;0.57;;
1837;SDS011;918;50.796;6.772;2022-12-29T05:58:13;1.10;;;0.50;;
1837;SDS011;918;50.796;6.772;2022-12-29T06:00:39;1.43;;;0.70;;
1837;SDS011;918;50.796;6.772;2022-12-29T06:03:05;1.10;;;0.73;;
1837;SDS011;918;50.796;6.772;2022-12-29T06:05:30;0.53;;;0.50;;
1837;SDS011;918;50.796;6.772;2022-12-29T06:07:55;1.23;;;0.87;;
1837;SDS011;918;50.796;6.772;2022-12-29T06:10:20;1.00;;;0.80;;
1837;SDS011;918;50.796;6.772;2022-12-29T06:12:46;1.00;;;0.60;;
1837;SDS011;918;50.796;6.772;2022-12-29T06:15:11;0.73;;;0.67;;
1837;SDS011;918;50.796;6.772;2022-12-29T06:17:37;1.10;;;0.70;;
1837;SDS011;918;50.796;6.772;2022-12-29T06:20:02;0.43;;;0.43;;
1837;SDS011;918;50.796;6.772;2022-12-29T06:22:28;1.30;;;0.60;;
1837;SDS011;918;50.796;6.772;2022-12-29T06:24:53;0.70;;;0.60;;
1837;SDS011;918;50.796;6.772;2022-12-29T06:27:18;1.00;;;0.70;;
1837;SDS011;918;50.796;6.772;2022-12-29T06:29:44;1.00;;;0.90;;
1837;SDS011;918;50.796;6.772;2022-12-29T06:32:09;1.43;;;0.70;;
1837;SDS011;918;50.796;6.772;2022-12-29T06:34:34;1.43;;;0.60;;
1837;SDS011;918;50.796;6.772;2022-12-29T06:37:00;1.40;;;0.60;;
1837;SDS011;918;50.796;6.772;2022-12-29T06:39:26;1.13;;;0.63;;
1837;SDS011;918;50.796;6.772;2022-12-29T06:41:51;0.40;;;0.40;;
1837;SDS011;918;50.796;6.772;2022-12-29T06:44:20;0.60;;;0.60;;
1837;SDS011;918;50.796;6.772;2022-12-29T06:46:46;1.27;;;0.60;;
1837;SDS011;918;50.796;6.772;2022-12-29T06:49:11;2.10;;;0.90;;
1837;SDS011;918;50.796;6.772;2022-12-29T06:51:36;0.50;;;0.50;;
1837;SDS011;918;50.796;6.772;2022-12-29T06:54:02;0.40;;;0.40;;
1837;SDS011;918;50.796;6.772;2022-12-29T06:56:27;1.07;;;0.60;;
1837;SDS011;918;50.796;6.772;2022-12-29T06:58:52;0.67;;;0.53;;
1837;SDS011;918;50.796;6.772;2022-12-29T07:01:18;0.90;;;0.50;;
1837;SDS011;918;50.796;6.772;2022-12-29T07:03:43;1.40;;;0.67;;
1837;SDS011;918;50.796;6.772;2022-12-29T07:06:08;0.70;;;0.70;;
1837;SDS011;918;50.796;6.772;2022-12-29T07:08:34;0.70;;;0.50;;
1837;SDS011;918;50.796;6.772;2022-12-29T07:10:59;1.80;;;0.80;;
1837;SDS011;918;50.796;6.772;2022-12-29T07:13:24;1.60;;;0.60;;
1837;SDS011;918;50.796;6.772;2022-12-29T07:15:49;1.07;;;0.70;;
1837;SDS011;918;50.796;6.772;2022-12-29T07:18:14;1.33;;;0.70;;
1837;SDS011;918;50.796;6.772;2022-12-29T07:20:40;0.60;;;0.60;;
1837;SDS011;918;50.796;6.772;2022-12-29T07:23:05;1.10;;;0.60;;
1837;SDS011;918;50.796;6.772;2022-12-29T07:25:30;1.13;;;0.50;;
1837;SDS011;918;50.796;6.772;2022-12-29T07:27:55;1.10;;;0.70;;
1837;SDS011;918;50.796;6.772;2022-12-29T07:30:21;0.57;;;0.50;;
1837;SDS011;918;50.796;6.772;2022-12-29T07:32:46;3.50;;;0.80;;
1837;SDS011;918;50.796;6.772;2022-12-29T07:35:11;1.77;;;1.00;;
1837;SDS011;918;50.796;6.772;2022-12-29T07:37:36;2.00;;;1.00;;
1837;SDS011;918;50.796;6.772;2022-12-29T07:40:02;1.30;;;0.70;;
1837;SDS011;918;50.796;6.772;2022-12-29T07:42:28;1.17;;;0.60;;
1837;SDS011;918;50.796;6.772;2022-12-29T07:44:53;0.70;;;0.67;;
1837;SDS011;918;50.796;6.772;2022-12-29T07:47:18;2.57;;;1.00;;
1837;SDS011;918;50.796;6.772;2022-12-29T07:49:44;1.93;;;1.17;;
1837;SDS011;918;50.796;6.772;2022-12-29T07:52:09;1.17;;;1.07;;
1837;SDS011;918;50.796;6.772;2022-12-29T07:54:34;3.30;;;1.00;;
1837;SDS011;918;50.796;6.772;2022-12-29T07:56:59;2.00;;;1.00;;
1837;SDS011;918;50.796;6.772;2022-12-29T07:59:25;2.77;;;0.70;;
1837;SDS011;918;50.796;6.772;2022-12-29T08:01:50;2.03;;;0.90;;
1837;SDS011;918;50.796;6.772;2022-12-29T08:04:16;1.90;;;1.00;;
1837;SDS011;918;50.796;6.772;2022-12-29T08:06:41;1.70;;;0.97;;
1837;SDS011;918;50.796;6.772;2022-12-29T08:09:06;2.30;;;1.10;;
1837;SDS011;918;50.796;6.772;2022-12-29T08:11:33;2.97;;;0.97;;
1837;SDS011;918;50.796;6.772;2022-12-29T08:13:58;1.80;;;0.90;;
1837;SDS011;918;50.796;6.772;2022-12-29T08:16:23;2.10;;;0.83;;
1837;SDS011;918;50.796;6.772;2022-12-29T08:18:48;1.57;;;1.23;;
1837;SDS011;918;50.796;6.772;2022-12-29T08:21:14;3.47;;;1.50;;
1837;SDS011;918;50.796;6.772;2022-12-29T08:23:39;3.50;;;1.50;;
1837;SDS011;918;50.796;6.772;2022-12-29T08:26:05;3.57;;;1.20;;
1837;SDS011;918;50.796;6.772;2022-12-29T08:28:31;2.60;;;1.00;;
1837;SDS011;918;50.796;6.772;2022-12-29T08:30:57;2.27;;;1.13;;
1837;SDS011;918;50.796;6.772;2022-12-29T08:33:24;3.57;;;1.40;;
1837;SDS011;918;50.796;6.772;2022-12-29T08:35:49;1.30;;;0.77;;
1837;SDS011;918;50.796;6.772;2022-12-29T08:38:14;3.37;;;1.83;;
1837;SDS011;918;50.796;6.772;2022-12-29T08:40:39;1.17;;;1.00;;
1837;SDS011;918;50.796;6.772;2022-12-29T08:43:05;1.10;;;1.00;;
1837;SDS011;918;50.796;6.772;2022-12-29T08:45:31;1.63;;;0.93;;
1837;SDS011;918;50.796;6.772;2022-12-29T08:47:56;2.93;;;0.90;;
1837;SDS011;918;50.796;6.772;2022-12-29T08:50:22;2.17;;;1.33;;
1837;SDS011;918;50.796;6.772;2022-12-29T08:52:47;2.73;;;0.90;;
1837;SDS011;918;50.796;6.772;2022-12-29T08:55:13;2.60;;;1.40;;
1837;SDS011;918;50.796;6.772;2022-12-29T08:57:38;3.20;;;1.23;;
1837;SDS011;918;50.796;6.772;2022-12-29T09:00:03;3.43;;;1.20;;
1837;SDS011;918;50.796;6.772;2022-12-29T09:02:29;3.63;;;1.37;;
1837;SDS011;918;50.796;6.772;2022-12-29T09:04:55;3.20;;;1.53;;
1837;SDS011;918;50.796;6.772;2022-12-29T09:07:22;1.87;;;1.17;;
1837;SDS011;918;50.796;6.772;2022-12-29T09:09:47;1.93;;;1.30;;
1837;SDS011;918;50.796;6.772;2022-12-29T09:12:12;2.03;;;1.00;;
1837;SDS011;918;50.796;6.772;2022-12-29T09:14:38;4.00;;;1.40;;
1837;SDS011;918;50.796;6.772;2022-12-29T09:17:03;7.47;;;2.10;;
1837;SDS011;918;50.796;6.772;2022-12-29T09:19:47;4.57;;;1.73;;
1837;SDS011;918;50.796;6.772;2022-12-29T09:22:12;2.70;;;1.17;;
1837;SDS011;918;50.796;6.772;2022-12-29T09:24:38;4.03;;;1.00;;
1837;SDS011;918;50.796;6.772;2022-12-29T09:27:03;4.10;;;1.40;;
1837;SDS011;918;50.796;6.772;2022-12-29T09:29:28;3.17;;;0.90;;
1837;SDS011;918;50.796;6.772;2022-12-29T09:31:53;3.13;;;1.40;;
1837;SDS011;918;50.796;6.772;2022-12-29T09:34:19;2.37;;;1.10;;
1837;SDS011;918;50.796;6.772;2022-12-29T09:36:44;2.53;;;1.30;;
1837;SDS011;918;50.796;6.772;2022-12-29T09:39:09;2.47;;;0.90;;
1837;SDS011;918;50.796;6.772;2022-12-29T09:46:49;4.67;;;1.53;;
1837;SDS011;918;50.796;6.772;2022-12-29T09:51:54;3.13;;;1.10;;
1837;SDS011;918;50.796;6.772;2022-12-29T09:54:30;2.63;;;1.37;;
1837;SDS011;918;50.796;6.772;2022-12-29T09:57:02;4.80;;;1.70;;
1837;SDS011;918;50.796;6.772;2022-12-29T09:59:34;2.20;;;1.00;;
1837;SDS011;918;50.796;6.772;2022-12-29T10:02:21;2.50;;;1.10;;
1837;SDS011;918;50.796;6.772;2022-12-29T10:04:52;2.37;;;1.27;;
1837;SDS011;918;50.796;6.772;2022-12-29T10:07:38;2.13;;;1.00;;
1837;SDS011;918;50.796;6.772;2022-12-29T10:13:26;2.53;;;1.40;;
1837;SDS011;918;50.796;6.772;2022-12-29T10:16:02;1.80;;;1.03;;
1837;SDS011;918;50.796;6.772;2022-12-29T10:23:57;1.83;;;1.13;;
1837;SDS011;918;50.796;6.772;2022-12-29T10:26:28;2.57;;;1.60;;
1837;SDS011;918;50.796;6.772;2022-12-29T10:28:58;6.00;;;1.33;;
1837;SDS011;918;50.796;6.772;2022-12-29T10:31:32;2.40;;;1.10;;
1837;SDS011;918;50.796;6.772;2022-12-29T10:34:01;1.97;;;1.10;;
1837;SDS011;918;50.796;6.772;2022-12-29T10:36:41;5.27;;;1.93;;
1837;SDS011;918;50.796;6.772;2022-12-29T10:39:16;4.03;;;1.10;;
1837;SDS011;918;50.796;6.772;2022-12-29T10:41:51;3.00;;;1.40;;
1837;SDS011;918;50.796;6.772;2022-12-29T10:44:19;2.03;;;0.90;;
1837;SDS011;918;50.796;6.772;2022-12-29T10:46:47;4.50;;;1.17;;
1837;SDS011;918;50.796;6.772;2022-12-29T10:49:19;2.40;;;1.37;;
1837;SDS011;918;50.796;6.772;2022-12-29T10:51:45;4.23;;;1.60;;
1837;SDS011;918;50.796;6.772;2022-12-29T10:56:42;1.50;;;1.10;;
1837;SDS011;918;50.796;6.772;2022-12-29T10:59:16;3.90;;;1.60;;
1837;SDS011;918;50.796;6.772;2022-12-29T11:02:01;4.10;;;1.33;;
1837;SDS011;918;50.796;6.772;2022-12-29T11:04:40;9.30;;;1.77;;
1837;SDS011;918;50.796;6.772;2022-12-29T11:07:16;3.37;;;1.43;;
1837;SDS011;918;50.796;6.772;2022-12-29T11:09:43;1.60;;;1.30;;
1837;SDS011;918;50.796;6.772;2022-12-29T11:15:35;3.97;;;1.17;;
1837;SDS011;918;50.796;6.772;2022-12-29T11:17:47;3.87;;;1.30;;
1837;SDS011;918;50.796;6.772;2022-12-29T11:20:26;4.03;;;1.10;;
1837;SDS011;918;50.796;6.772;2022-12-29T11:22:54;2.03;;;1.10;;
1837;SDS011;918;50.796;6.772;2022-12-29T11:25:20;3.93;;;1.10;;
1837;SDS011;918;50.796;6.772;2022-12-29T11:27:59;3.33;;;1.10;;
1837;SDS011;918;50.796;6.772;2022-12-29T11:30:29;5.67;;;1.50;;
1837;SDS011;918;50.796;6.772;2022-12-29T11:32:56;2.90;;;1.07;;
1837;SDS011;918;50.796;6.772;2022-12-29T11:35:40;1.57;;;1.23;;
1837;SDS011;918;50.796;6.772;2022-12-29T11:38:16;2.10;;;1.17;;
1837;SDS011;918;50.796;6.772;2022-12-29T11:40:45;6.10;;;1.57;;
1837;SDS011;918;50.796;6.772;2022-12-29T11:43:17;1.90;;;1.27;;
1837;SDS011;918;50.796;6.772;2022-12-29T11:45:55;3.03;;;1.40;;
1837;SDS011;918;50.796;6.772;2022-12-29T11:48:21;6.20;;;2.73;;
1837;SDS011;918;50.796;6.772;2022-12-29T11:50:50;3.73;;;1.23;;
1837;SDS011;918;50.796;6.772;2022-12-29T11:53:21;1.30;;;1.07;;
1837;SDS011;918;50.796;6.772;2022-12-29T11:55:54;3.23;;;1.60;;
1837;SDS011;918;50.796;6.772;2022-12-29T11:58:27;4.17;;;1.20;;
1837;SDS011;918;50.796;6.772;2022-12-29T12:00:57;4.33;;;1.70;;
1837;SDS011;918;50.796;6.772;2022-12-29T12:03:30;3.17;;;1.37;;
1837;SDS011;918;50.796;6.772;2022-12-29T12:06:07;4.80;;;1.43;;
1837;SDS011;918;50.796;6.772;2022-12-29T12:08:44;2.03;;;1.40;;
1837;SDS011;918;50.796;6.772;2022-12-29T12:11:20;3.60;;;1.17;;
1837;SDS011;918;50.796;6.772;2022-12-29T12:14:00;4.37;;;1.53;;
1837;SDS011;918;50.796;6.772;2022-12-29T12:16:36;3.53;;;1.70;;
1837;SDS011;918;50.796;6.772;2022-12-29T12:19:09;3.87;;;1.27;;
1837;SDS011;918;50.796;6.772;2022-12-29T12:21:59;4.13;;;1.63;;
1837;SDS011;918;50.796;6.772;2022-12-29T12:24:34;4.00;;;1.60;;
1837;SDS011;918;50.796;6.772;2022-12-29T12:32:15;2.00;;;1.10;;
1837;SDS011;918;50.796;6.772;2022-12-29T12:34:47;2.90;;;1.30;;
1837;SDS011;918;50.796;6.772;2022-12-29T12:37:26;2.27;;;1.10;;
1837;SDS011;918;50.796;6.772;2022-12-29T12:40:14;3.93;;;1.30;;
1837;SDS011;918;50.796;6.772;2022-12-29T12:42:47;2.07;;;1.20;;
1837;SDS011;918;50.796;6.772;2022-12-29T12:56:59;7.73;;;1.67;;
1837;SDS011;918;50.796;6.772;2022-12-29T13:18:19;3.03;;;1.30;;
1837;SDS011;918;50.796;6.772;2022-12-29T13:23:32;4.93;;;1.60;;
1837;SDS011;918;50.796;6.772;2022-12-29T13:26:23;3.30;;;1.30;;
1837;SDS011;918;50.796;6.772;2022-12-29T13:31:52;3.30;;;1.33;;
1837;SDS011;918;50.796;6.772;2022-12-29T13:37:01;4.70;;;1.67;;
1837;SDS011;918;50.796;6.772;2022-12-29T13:39:39;3.37;;;1.57;;
1837;SDS011;918;50.796;6.772;2022-12-29T13:42:08;2.50;;;1.30;;
1837;SDS011;918;50.796;6.772;2022-12-29T13:49:56;7.20;;;1.73;;
1837;SDS011;918;50.796;6.772;2022-12-29T13:57:52;5.03;;;4.23;;
1837;SDS011;918;50.796;6.772;2022-12-29T14:00:23;3.30;;;2.10;;
1837;SDS011;918;50.796;6.772;2022-12-29T14:05:35;3.27;;;1.60;;
1837;SDS011;918;50.796;6.772;2022-12-29T14:08:01;4.10;;;2.40;;
1837;SDS011;918;50.796;6.772;2022-12-29T14:10:32;4.33;;;2.00;;
1837;SDS011;918;50.796;6.772;2022-12-29T14:15:30;5.03;;;2.20;;
1837;SDS011;918;50.796;6.772;2022-12-29T14:18:03;5.30;;;2.50;;
1837;SDS011;918;50.796;6.772;2022-12-29T14:20:34;3.07;;;2.10;;
1837;SDS011;918;50.796;6.772;2022-12-29T14:28:27;4.57;;;1.87;;
1837;SDS011;918;50.796;6.772;2022-12-29T14:30:57;2.77;;;1.80;;
1837;SDS011;918;50.796;6.772;2022-12-29T14:33:24;10.07;;;9.37;;
1837;SDS011;918;50.796;6.772;2022-12-29T14:35:52;5.83;;;2.90;;
1837;SDS011;918;50.796;6.772;2022-12-29T14:40:47;3.37;;;2.20;;
1837;SDS011;918;50.796;6.772;2022-12-29T14:43:18;5.83;;;2.40;;
1837;SDS011;918;50.796;6.772;2022-12-29T14:45:51;4.57;;;1.90;;
1837;SDS011;918;50.796;6.772;2022-12-29T14:48:26;3.47;;;1.50;;
1837;SDS011;918;50.796;6.772;2022-12-29T14:50:54;5.00;;;1.53;;
1837;SDS011;918;50.796;6.772;2022-12-29T14:56:12;4.70;;;2.03;;
1837;SDS011;918;50.796;6.772;2022-12-29T14:58:52;3.20;;;1.60;;
1837;SDS011;918;50.796;6.772;2022-12-29T15:01:38;4.03;;;1.63;;
1837;SDS011;918;50.796;6.772;2022-12-29T15:04:22;3.43;;;1.60;;
1837;SDS011;918;50.796;6.772;2022-12-29T15:06:49;3.47;;;1.70;;
1837;SDS011;918;50.796;6.772;2022-12-29T15:09:23;4.20;;;1.40;;
1837;SDS011;918;50.796;6.772;2022-12-29T15:11:53;3.10;;;1.33;;
1837;SDS011;918;50.796;6.772;2022-12-29T15:14:47;3.27;;;1.53;;
1837;SDS011;918;50.796;6.772;2022-12-29T15:17:28;3.97;;;2.10;;
1837;SDS011;918;50.796;6.772;2022-12-29T15:19:55;3.57;;;1.80;;
1837;SDS011;918;50.796;6.772;2022-12-29T15:22:22;2.07;;;1.57;;
1837;SDS011;918;50.796;6.772;2022-12-29T15:24:49;4.00;;;1.33;;
1837;SDS011;918;50.796;6.772;2022-12-29T15:27:18;2.50;;;1.60;;
1837;SDS011;918;50.796;6.772;2022-12-29T15:29:50;3.13;;;1.63;;
1837;SDS011;918;50.796;6.772;2022-12-29T15:32:22;3.53;;;1.53;;
1837;SDS011;918;50.796;6.772;2022-12-29T15:34:49;3.57;;;1.93;;
1837;SDS011;918;50.796;6.772;2022-12-29T15:37:20;5.53;;;1.63;;
1837;SDS011;918;50.796;6.772;2022-12-29T15:39:50;4.23;;;1.77;;
1837;SDS011;918;50.796;6.772;2022-12-29T15:42:23;6.90;;;2.20;;
1837;SDS011;918;50.796;6.772;2022-12-29T15:44:50;4.30;;;2.10;;
1837;SDS011;918;50.796;6.772;2022-12-29T15:47:16;4.97;;;2.27;;
1837;SDS011;918;50.796;6.772;2022-12-29T15:49:43;4.40;;;1.63;;
1837;SDS011;918;50.796;6.772;2022-12-29T15:52:09;4.97;;;1.37;;
1837;SDS011;918;50.796;6.772;2022-12-29T15:54:35;4.17;;;1.80;;
1837;SDS011;918;50.796;6.772;2022-12-29T15:57:01;3.70;;;1.20;;
1837;SDS011;918;50.796;6.772;2022-12-29T15:59:27;3.53;;;1.27;;
1837;SDS011;918;50.796;6.772;2022-12-29T16:01:56;6.43;;;2.20;;
1837;SDS011;918;50.796;6.772;2022-12-29T16:04:22;7.33;;;1.90;;
1837;SDS011;918;50.796;6.772;2022-12-29T16:06:58;3.53;;;1.47;;
1837;SDS011;918;50.796;6.772;2022-12-29T16:09:32;5.07;;;1.87;;
1837;SDS011;918;50.796;6.772;2022-12-29T16:11:59;6.00;;;2.53;;
1837;SDS011;918;50.796;6.772;2022-12-29T16:14:30;4.67;;;2.10;;
1837;SDS011;918;50.796;6.772;2022-12-29T16:16:58;5.53;;;2.90;;
1837;SDS011;918;50.796;6.772;2022-12-29T16:19:36;5.60;;;2.77;;
1837;SDS011;918;50.796;6.772;2022-12-29T16:22:03;4.10;;;2.37;;
1837;SDS011;918;50.796;6.772;2022-12-29T16:24:36;4.07;;;1.93;;
1837;SDS011;918;50.796;6.772;2022-12-29T16:27:25;6.23;;;2.50;;
1837;SDS011;918;50.796;6.772;2022-12-29T16:29:52;3.13;;;2.13;;
1837;SDS011;918;50.796;6.772;2022-12-29T16:32:24;3.13;;;2.03;;
1837;SDS011;918;50.796;6.772;2022-12-29T16:34:52;7.33;;;2.50;;
1837;SDS011;918;50.796;6.772;2022-12-29T16:42:53;2.73;;;2.00;;
1837;SDS011;918;50.796;6.772;2022-12-29T16:50:29;6.10;;;2.53;;
1837;SDS011;918;50.796;6.772;2022-12-29T16:52:55;5.33;;;2.10;;
1837;SDS011;918;50.796;6.772;2022-12-29T16:55:20;3.90;;;1.87;;
1837;SDS011;918;50.796;6.772;2022-12-29T16:57:46;6.77;;;2.43;;
1837;SDS011;918;50.796;6.772;2022-12-29T17:00:18;4.70;;;2.43;;
1837;SDS011;918;50.796;6.772;2022-12-29T17:02:48;4.10;;;2.30;;
1837;SDS011;918;50.796;6.772;2022-12-29T17:05:15;8.17;;;3.00;;
1837;SDS011;918;50.796;6.772;2022-12-29T17:07:41;4.57;;;2.10;;
1837;SDS011;918;50.796;6.772;2022-12-29T17:10:07;9.73;;;2.83;;
1837;SDS011;918;50.796;6.772;2022-12-29T17:12:32;5.60;;;2.40;;
1837;SDS011;918;50.796;6.772;2022-12-29T17:14:59;8.97;;;2.70;;
1837;SDS011;918;50.796;6.772;2022-12-29T17:17:37;4.93;;;2.40;;
1837;SDS011;918;50.796;6.772;2022-12-29T17:22:43;3.70;;;3.40;;
1837;SDS011;918;50.796;6.772;2022-12-29T17:25:11;8.77;;;3.07;;
1837;SDS011;918;50.796;6.772;2022-12-29T17:27:41;4.40;;;3.37;;
1837;SDS011;918;50.796;6.772;2022-12-29T17:32:39;7.00;;;2.50;;
1837;SDS011;918;50.796;6.772;2022-12-29T17:35:05;9.13;;;2.90;;
1837;SDS011;918;50.796;6.772;2022-12-29T17:37:31;3.77;;;2.80;;
1837;SDS011;918;50.796;6.772;2022-12-29T17:39:59;5.23;;;2.70;;
1837;SDS011;918;50.796;6.772;2022-12-29T17:42:24;8.47;;;4.50;;
1837;SDS011;918;50.796;6.772;2022-12-29T17:44:49;3.20;;;2.50;;
1837;SDS011;918;50.796;6.772;2022-12-29T17:47:15;9.23;;;3.53;;
1837;SDS011;918;50.796;6.772;2022-12-29T17:49:40;2.77;;;2.33;;
1837;SDS011;918;50.796;6.772;2022-12-29T17:52:10;6.67;;;2.30;;
1837;SDS011;918;50.796;6.772;2022-12-29T17:54:36;7.70;;;2.23;;